ソウル/仁川 の空港の天気 - METARとTAF

仁川国際空港 ( RKSI / ICN ) - 韓国 仁川広域市 (ソウル特別市近郊)
飛行場実況気象(Metar)
観測時間10/22 01:00 KST (10/21 16:00 UTC)
風向・風速南 4m/s
視程8000m
天気現象
全天の4割程度の雲 雲底高度 760m
気温16℃
湿度88%
気圧1015hPa
METARRKSI 211600Z 18007KT 8000 SCT025 16/14 Q1015 NOSIG
過去の天気等 Google飛行場航空写真 Wunderground天気予報

過去48時間のMETAR

飛行場予報(TAF)
発表時間: 10/21 20:00 KST (10/21 11:00 UTC)
予報対象時間: 21日21時 KST ~ 23日3時 KST
風向・風速南南東 4m/s
視程7000m
全天の4割程度の雲 雲底高度 760m
全天の8割程度の雲 雲底高度 3660m
22日0時 KST ~ 22日1時 KST に徐々に
風向・風速南南西 4m/s
視程4000m
天気現象弱い雨
全天の4割程度の雲 雲底高度 300m
全天の8割程度の雲 雲底高度 760m
22日4時 KST ~ 22日5時 KST に徐々に
風向・風速北西 4m/s
視程6000m
天気現象運行に影響にある天気現象が終了
22日7時 KST ~ 22日8時 KST に徐々に
全天の4割程度の雲 雲底高度 910m
全天の8割程度の雲 雲底高度 5490m
22日12時 KST ~ 22日13時 KST に徐々に
風向・風速北西 8m/s 瞬間風速 13m/s
視程10km以上
なし
TAF RKSI 211100Z 2112/2218 16008KT 7000 SCT025 BKN120 TN11/2122Z TX17/2205Z
BECMG 2115/2116 20008KT 4000 -RA SCT010 BKN025
BECMG 2119/2120 31008KT 6000 NSW
BECMG 2122/2123 SCT030 BKN180
BECMG 2203/2204 32015G25KT CAVOK